首页
METAR-TAF:

METAR-TAF

机场 :

Saginaw, 密歇根州, 美国

纬度: 43-31-58N, 经度: 084-04-46W, 海拔: 204米

当前天气观测

该预报发布于14分钟前的07:53 UTC
风速9节,风向西转西北,有时为17节阵风
温度 1°C
湿度 69%
气压 1004 hPa
能見度: 16.1公里
阴天层高于2200英尺

METAR: KMBS 100753Z AUTO 30009G17KT 10SM OVC022 01/M04 A2966 RMK AO2 PRESRR SLP049 T00061039

时间: 03:07 (08:07 UTC)

预报

该预报发布于2小时和28分钟前的05:39 UTC
预报有效从10日的 06点(UTC)到 11日的 06点(UTC)
风速16节,风向西,有时为26节阵风
能見度: 10公里
阴天层高于2200英尺
从 10日的 1000点(UTC)
风速12节,风向西,有时为22节阵风
能見度: 10公里
散云层高于2500英尺
阴天层高于3500英尺
小阵雪
从 10日的 1700点(UTC)
风速14节,风向西
能見度: 10公里
多云层高于4500英尺
从 11日的 0000点(UTC)
风速12节,风向西
能見度: 10公里
散云层高于4500英尺

TAF: KMBS 100539Z 1006/1106 27016G26KT P6SM OVC022 FM101000 28012G22KT P6SM -SHSN SCT025 OVC035 FM101700 27014KT P6SM BKN045 FM110000 26012KT P6SM SCT045

超过4000个机场的气象观测和天气预报(METAR&TAF报告)。

可查询的气象台以黄色和红色小点在地图上表示。

将鼠标移到小点上方,可查看气象台名称。

然后点击查看天气观测和预报。

如需切换地图:点击带黑十字的绿色按钮放大地图;点击带横线的绿色按钮缩小地图;或者点击绿色箭头查看邻近地区的地图。


METAR-TAF: